createdAt,value
2017-08-16T00:00:31.814Z,24.52
2017-08-16T00:02:59.374Z,24.49
2017-08-16T00:05:26.910Z,24.51
2017-08-16T00:07:54.462Z,24.39
2017-08-16T00:10:22.488Z,24.43
2017-08-16T00:12:50.057Z,24.46
2017-08-16T00:15:17.574Z,24.45
2017-08-16T00:17:45.153Z,24.41
2017-08-16T00:20:12.748Z,24.45
2017-08-16T00:22:40.516Z,24.37
2017-08-16T00:25:08.159Z,24.43
2017-08-16T00:27:35.706Z,24.40
2017-08-16T00:30:03.262Z,24.35
2017-08-16T00:32:30.927Z,24.36
2017-08-16T00:34:59.315Z,24.36
2017-08-16T00:37:26.887Z,24.39
2017-08-16T00:39:54.547Z,24.38
2017-08-16T00:42:22.073Z,24.34
2017-08-16T00:44:49.646Z,24.34
2017-08-16T00:47:17.204Z,24.35
2017-08-16T00:49:44.729Z,24.35
2017-08-16T00:52:12.431Z,24.29
2017-08-16T00:54:40.020Z,24.33
2017-08-16T00:57:07.660Z,24.27
2017-08-16T00:59:35.329Z,24.26
2017-08-16T01:02:02.897Z,24.30
2017-08-16T01:04:30.536Z,24.30
2017-08-16T01:06:58.229Z,24.29
2017-08-16T01:09:25.837Z,24.30
2017-08-16T01:11:53.907Z,24.31
2017-08-16T01:14:21.507Z,24.23
2017-08-16T01:16:49.278Z,24.29
2017-08-16T01:19:16.891Z,24.22
2017-08-16T01:21:44.433Z,24.24
2017-08-16T01:24:12.012Z,24.23
2017-08-16T01:26:39.605Z,24.19
2017-08-16T01:29:07.204Z,24.10
2017-08-16T01:31:35.088Z,24.00
2017-08-16T01:34:02.657Z,24.01
2017-08-16T01:36:30.252Z,24.09
2017-08-16T01:38:58.139Z,24.03
2017-08-16T01:41:25.673Z,24.00
2017-08-16T01:43:53.419Z,24.03
2017-08-16T01:46:21.084Z,24.02
2017-08-16T01:48:48.668Z,24.00
2017-08-16T01:51:16.218Z,23.99
2017-08-16T01:53:43.728Z,23.98
2017-08-16T01:56:11.322Z,23.96
2017-08-16T01:58:38.817Z,23.97
2017-08-16T02:01:06.369Z,23.96
2017-08-16T02:03:33.913Z,23.94
2017-08-16T02:06:01.409Z,23.93
2017-08-16T02:08:28.970Z,23.88
2017-08-16T02:10:56.502Z,23.91
2017-08-16T02:13:23.997Z,23.90
2017-08-16T02:15:51.529Z,23.91
2017-08-16T02:18:19.065Z,23.90
2017-08-16T02:20:46.586Z,23.89
2017-08-16T02:23:14.086Z,23.78
2017-08-16T02:25:41.629Z,23.87
2017-08-16T02:28:09.126Z,23.85
2017-08-16T02:30:36.676Z,23.86
2017-08-16T02:33:04.174Z,23.84
2017-08-16T02:35:31.710Z,23.84
2017-08-16T02:37:59.250Z,23.84
2017-08-16T02:40:26.749Z,23.81
2017-08-16T02:42:54.365Z,23.80
2017-08-16T02:45:21.869Z,23.83
2017-08-16T02:47:49.380Z,23.80
2017-08-16T02:50:16.962Z,23.80
2017-08-16T02:52:44.650Z,23.76
2017-08-16T02:55:12.197Z,23.80
2017-08-16T02:57:39.694Z,23.72
2017-08-16T03:00:07.305Z,23.77
2017-08-16T03:02:34.859Z,23.77
2017-08-16T03:05:02.361Z,23.76
2017-08-16T03:07:29.882Z,23.72
2017-08-16T03:09:57.440Z,23.75
2017-08-16T03:12:24.932Z,23.75
2017-08-16T03:14:52.436Z,23.72
2017-08-16T03:17:19.968Z,23.74
2017-08-16T03:19:47.507Z,23.70
2017-08-16T03:22:15.013Z,23.72
2017-08-16T03:24:42.558Z,23.73
2017-08-16T03:27:10.081Z,23.72
2017-08-16T03:29:37.616Z,23.70
2017-08-16T03:32:05.121Z,23.71
2017-08-16T03:34:32.660Z,23.70
2017-08-16T03:37:00.160Z,23.65
2017-08-16T03:39:27.669Z,23.65
2017-08-16T03:41:55.209Z,23.69
2017-08-16T03:44:22.768Z,23.70
2017-08-16T03:46:50.341Z,23.53
2017-08-16T03:49:17.855Z,23.66
2017-08-16T03:51:45.359Z,23.67
2017-08-16T03:54:12.896Z,23.60
2017-08-16T03:56:40.397Z,23.65
2017-08-16T03:59:07.949Z,23.64
2017-08-16T04:01:35.477Z,23.62
2017-08-16T04:04:03.269Z,23.69
2017-08-16T04:06:30.905Z,23.70
2017-08-16T04:08:58.852Z,23.73
2017-08-16T04:11:26.426Z,23.76
2017-08-16T04:13:54.053Z,23.79
2017-08-16T04:16:21.632Z,23.81
2017-08-16T04:18:49.171Z,23.86
2017-08-16T04:21:16.695Z,23.88
2017-08-16T04:23:44.268Z,23.92
2017-08-16T04:26:11.799Z,23.96
2017-08-16T04:28:39.323Z,23.98
2017-08-16T04:31:06.886Z,23.98
2017-08-16T04:33:34.388Z,24.02
2017-08-16T04:36:01.927Z,24.04
2017-08-16T04:38:29.490Z,24.09
2017-08-16T04:40:56.997Z,24.11
2017-08-16T04:43:24.584Z,24.13
2017-08-16T04:45:52.139Z,24.18
2017-08-16T04:48:19.717Z,24.24
2017-08-16T04:50:47.235Z,24.25
2017-08-16T04:53:14.798Z,24.28
2017-08-16T04:55:42.313Z,24.27
2017-08-16T04:58:09.829Z,24.30
2017-08-16T05:00:37.370Z,24.32
2017-08-16T05:03:04.873Z,24.35
2017-08-16T05:05:32.451Z,24.38
2017-08-16T05:07:59.946Z,24.41
2017-08-16T05:10:27.613Z,24.45
2017-08-16T05:12:55.255Z,24.47
2017-08-16T05:15:22.894Z,24.51
2017-08-16T05:17:50.493Z,24.56
2017-08-16T05:20:18.069Z,24.59
2017-08-16T05:22:45.605Z,24.63
2017-08-16T05:25:13.182Z,24.66
2017-08-16T05:27:40.749Z,24.66
2017-08-16T05:30:08.293Z,24.62
2017-08-16T05:32:35.823Z,24.70
2017-08-16T05:35:03.512Z,24.75
2017-08-16T05:37:31.309Z,24.77
2017-08-16T05:39:58.912Z,24.74
2017-08-16T05:42:26.489Z,24.75
2017-08-16T05:44:54.218Z,24.75
2017-08-16T05:47:21.801Z,24.75
2017-08-16T05:49:49.329Z,24.77
2017-08-16T05:52:16.837Z,24.78
2017-08-16T05:54:44.391Z,24.77
2017-08-16T05:57:11.965Z,24.76
2017-08-16T05:59:39.511Z,24.78
2017-08-16T06:02:07.088Z,24.77
2017-08-16T06:04:34.705Z,24.81
2017-08-16T06:07:02.303Z,24.83
2017-08-16T06:09:29.817Z,24.84
2017-08-16T06:11:57.445Z,24.86
2017-08-16T06:14:25.053Z,24.82
2017-08-16T06:16:52.738Z,24.82
2017-08-16T06:19:20.898Z,24.86
2017-08-16T06:21:48.446Z,24.91
2017-08-16T06:24:16.208Z,24.88
2017-08-16T06:26:43.793Z,24.94
2017-08-16T06:29:11.667Z,24.97
2017-08-16T06:31:39.241Z,24.98
2017-08-16T06:34:06.881Z,25.01
2017-08-16T06:36:34.540Z,25.04
2017-08-16T06:39:02.206Z,25.02
2017-08-16T06:41:30.019Z,24.98
2017-08-16T06:43:57.777Z,25.02
2017-08-16T06:46:25.830Z,25.01
2017-08-16T06:48:53.453Z,25.07
2017-08-16T06:51:21.025Z,25.09
2017-08-16T06:53:48.996Z,25.07
2017-08-16T06:56:16.660Z,25.12
2017-08-16T06:58:44.447Z,25.11
2017-08-16T07:01:12.599Z,25.11
2017-08-16T07:03:40.460Z,25.11
2017-08-16T07:06:08.002Z,25.13
2017-08-16T07:08:35.700Z,25.18
2017-08-16T07:11:04.869Z,25.14
2017-08-16T07:13:32.782Z,25.16
2017-08-16T07:16:01.639Z,25.13
2017-08-16T07:18:29.274Z,25.11
2017-08-16T07:20:56.880Z,25.23
2017-08-16T07:23:24.449Z,25.14
2017-08-16T07:25:52.112Z,25.23
2017-08-16T07:28:19.657Z,25.22
2017-08-16T07:30:47.341Z,25.25
2017-08-16T07:33:14.988Z,25.28
2017-08-16T07:35:42.516Z,25.34
2017-08-16T07:38:10.247Z,25.26
2017-08-16T07:40:37.970Z,25.30
2017-08-16T07:43:05.677Z,25.28
2017-08-16T07:45:33.407Z,25.35
2017-08-16T07:48:01.080Z,25.24
2017-08-16T07:50:28.750Z,25.31
2017-08-16T07:52:56.535Z,25.34
2017-08-16T07:55:24.165Z,25.32
2017-08-16T07:57:51.934Z,25.27
2017-08-16T08:00:19.533Z,25.37
2017-08-16T08:02:47.248Z,25.31
2017-08-16T08:05:14.928Z,25.41
2017-08-16T08:07:42.677Z,25.39
2017-08-16T08:10:30.225Z,25.35
2017-08-16T08:12:59.745Z,25.41
2017-08-16T08:15:28.207Z,25.33
2017-08-16T08:18:10.749Z,25.44
2017-08-16T08:20:42.778Z,25.41
2017-08-16T08:23:11.986Z,25.41
2017-08-16T08:25:45.506Z,25.48
2017-08-16T08:31:33.982Z,25.53
2017-08-16T08:37:01.798Z,25.53
2017-08-16T08:39:39.553Z,25.55
2017-08-16T08:42:07.609Z,25.52
2017-08-16T08:44:51.059Z,25.44
2017-08-16T08:47:23.708Z,25.48
2017-08-16T08:53:01.203Z,25.49
2017-08-16T08:55:42.634Z,25.53
2017-08-16T08:58:16.923Z,25.47
2017-08-16T09:27:50.209Z,25.50
2017-08-16T09:30:51.682Z,25.38
2017-08-16T09:33:30.799Z,25.51
2017-08-16T09:36:03.923Z,25.50
2017-08-16T09:38:31.825Z,25.41
2017-08-16T09:41:00.793Z,25.38
2017-08-16T09:43:31.084Z,25.53
2017-08-16T09:45:59.151Z,25.47
2017-08-16T09:48:33.224Z,25.48
2017-08-16T09:51:01.643Z,25.49
2017-08-16T09:53:30.876Z,25.51
2017-08-16T09:56:06.087Z,25.46
2017-08-16T09:58:35.180Z,25.44
2017-08-16T10:01:05.692Z,25.48
2017-08-16T10:03:33.433Z,25.45
2017-08-16T10:08:46.437Z,25.45
2017-08-16T10:17:52.061Z,25.52
2017-08-16T10:24:17.125Z,25.53
2017-08-16T10:26:47.957Z,25.52
2017-08-16T10:29:26.428Z,25.52
2017-08-16T10:32:09.880Z,25.55
2017-08-16T10:48:39.718Z,25.60
2017-08-16T10:51:10.707Z,25.59
2017-08-16T10:53:56.603Z,25.63
2017-08-16T10:56:27.448Z,25.55
2017-08-16T10:59:00.229Z,25.61
2017-08-16T11:01:30.137Z,25.59
2017-08-16T11:04:01.068Z,25.60
2017-08-16T11:06:37.850Z,25.57
2017-08-16T11:09:05.954Z,25.62
2017-08-16T11:11:41.854Z,25.56
2017-08-16T11:14:10.618Z,25.44
2017-08-16T11:26:58.539Z,25.70
2017-08-16T11:29:30.181Z,25.64
2017-08-16T11:32:02.129Z,25.64
2017-08-16T11:34:38.912Z,25.70
2017-08-16T11:43:11.619Z,25.70
2017-08-16T12:04:54.761Z,25.73
2017-08-16T12:11:14.201Z,25.77
2017-08-16T12:16:27.550Z,25.58
2017-08-16T12:18:57.001Z,25.54
2017-08-16T12:21:24.574Z,25.70
2017-08-16T12:23:55.807Z,25.71
2017-08-16T12:26:40.327Z,25.73
2017-08-16T12:29:13.855Z,25.64
2017-08-16T12:31:43.331Z,25.69
2017-08-16T12:34:11.170Z,25.73
2017-08-16T12:36:44.197Z,25.76
2017-08-16T12:52:44.675Z,25.64
2017-08-16T12:55:46.901Z,25.74
2017-08-16T12:58:19.034Z,25.74
2017-08-16T13:04:40.078Z,25.69
2017-08-16T13:07:11.025Z,25.53
2017-08-16T13:09:43.433Z,25.70
2017-08-16T13:12:22.070Z,25.73
2017-08-16T13:14:51.005Z,25.73
2017-08-16T13:17:25.369Z,25.77
2017-08-16T13:19:53.224Z,25.81
2017-08-16T13:22:45.519Z,25.81
2017-08-16T13:29:02.832Z,25.86
2017-08-16T13:31:36.124Z,25.81
2017-08-16T13:34:05.603Z,25.81
2017-08-16T13:36:34.263Z,25.79
2017-08-16T13:57:13.759Z,25.81
2017-08-16T13:59:41.374Z,25.82
2017-08-16T14:02:08.937Z,25.88
2017-08-16T14:04:36.843Z,25.81
2017-08-16T14:07:06.349Z,25.85
2017-08-16T14:09:38.178Z,25.85
2017-08-16T14:12:07.100Z,25.80
2017-08-16T14:14:40.727Z,25.87
2017-08-16T14:37:44.391Z,25.77
2017-08-16T14:40:45.315Z,25.85
2017-08-16T14:43:42.828Z,25.84
2017-08-16T15:01:29.990Z,25.82
2017-08-16T15:03:57.704Z,25.82
2017-08-16T15:06:25.580Z,25.72
2017-08-16T15:08:53.540Z,25.81
2017-08-16T15:11:28.486Z,25.78
2017-08-16T15:13:56.422Z,25.85
2017-08-16T15:16:27.849Z,25.83
2017-08-16T15:19:01.738Z,25.77
2017-08-16T15:21:29.977Z,25.75
2017-08-16T15:23:58.361Z,25.81
2017-08-16T15:26:26.168Z,25.82
2017-08-16T15:28:53.877Z,25.76
2017-08-16T15:31:21.446Z,25.78
2017-08-16T15:33:49.009Z,25.82
2017-08-16T15:36:16.661Z,25.68
2017-08-16T15:38:45.912Z,25.77
2017-08-16T15:41:13.855Z,25.70
2017-08-16T15:43:41.432Z,25.78
2017-08-16T15:46:09.128Z,25.75
2017-08-16T15:48:36.895Z,25.73
2017-08-16T15:51:04.604Z,25.73
2017-08-16T15:53:32.258Z,25.62
2017-08-16T15:55:59.857Z,25.69
2017-08-16T15:58:27.409Z,25.64
2017-08-16T16:00:55.089Z,25.72
2017-08-16T16:03:22.626Z,25.72
2017-08-16T16:05:51.305Z,25.70
2017-08-16T16:08:18.852Z,25.70
2017-08-16T16:10:46.400Z,25.56
2017-08-16T16:13:13.987Z,25.67
2017-08-16T16:15:41.718Z,25.64
2017-08-16T16:18:09.450Z,25.61
2017-08-16T16:20:39.105Z,25.59
2017-08-16T16:23:06.637Z,25.58
2017-08-16T16:25:34.192Z,25.55
2017-08-16T16:28:01.939Z,25.51
2017-08-16T16:30:29.458Z,25.57
2017-08-16T16:32:57.398Z,25.40
2017-08-16T16:35:24.992Z,25.54
2017-08-16T16:37:52.552Z,25.52
2017-08-16T16:40:20.099Z,25.50
2017-08-16T16:42:48.318Z,25.47
2017-08-16T16:45:15.841Z,25.48
2017-08-16T16:47:43.334Z,25.45
2017-08-16T16:50:10.950Z,25.45
2017-08-16T16:52:38.454Z,25.40
2017-08-16T16:55:06.093Z,25.42
2017-08-16T16:57:33.662Z,25.34
2017-08-16T17:00:01.387Z,25.40
2017-08-16T17:02:29.040Z,25.38
2017-08-16T17:04:56.836Z,25.38
2017-08-16T17:07:24.448Z,25.38
2017-08-16T17:09:51.952Z,25.40
2017-08-16T17:12:19.498Z,25.41
2017-08-16T17:14:47.001Z,25.45
2017-08-16T17:17:14.541Z,25.50
2017-08-16T17:19:42.078Z,25.48
2017-08-16T17:22:09.636Z,25.51
2017-08-16T17:24:37.319Z,25.55
2017-08-16T17:27:04.834Z,25.60
2017-08-16T17:29:32.541Z,25.65
2017-08-16T17:32:00.054Z,25.69
2017-08-16T17:34:27.618Z,25.66
2017-08-16T17:36:55.310Z,25.74
2017-08-16T17:39:22.824Z,25.77
2017-08-16T17:41:50.394Z,25.81
2017-08-16T17:44:17.889Z,25.81
2017-08-16T17:46:45.550Z,25.84
2017-08-16T17:49:13.053Z,25.88
2017-08-16T17:51:41.365Z,25.89
2017-08-16T17:54:08.903Z,25.91
2017-08-16T17:56:38.686Z,25.93
2017-08-16T17:59:06.927Z,25.85
2017-08-16T18:01:34.488Z,25.90
2017-08-16T18:04:02.045Z,25.97
2017-08-16T18:06:30.490Z,25.93
2017-08-16T18:08:58.013Z,25.99
2017-08-16T18:11:25.591Z,25.99
2017-08-16T18:13:53.209Z,25.94
2017-08-16T18:16:20.718Z,25.97
2017-08-16T18:18:48.253Z,26.01
2017-08-16T18:21:15.790Z,26.01
2017-08-16T18:23:43.426Z,26.02
2017-08-16T18:26:10.983Z,26.00
2017-08-16T18:28:39.011Z,25.95
2017-08-16T18:31:06.638Z,26.03
2017-08-16T18:33:34.224Z,26.04
2017-08-16T18:36:01.950Z,25.99
2017-08-16T18:38:29.522Z,26.01
2017-08-16T18:40:57.292Z,26.03
2017-08-16T18:43:24.949Z,26.01
2017-08-16T18:45:52.554Z,26.04
2017-08-16T18:48:21.086Z,26.01
2017-08-16T18:50:48.687Z,26.02
2017-08-16T18:53:16.244Z,26.01
2017-08-16T18:55:43.754Z,26.05
2017-08-16T18:58:11.606Z,26.03
2017-08-16T19:00:39.230Z,26.03
2017-08-16T19:03:06.869Z,26.06
2017-08-16T19:05:34.407Z,26.04
2017-08-16T19:08:01.973Z,26.04
2017-08-16T19:10:29.477Z,26.05
2017-08-16T19:12:57.061Z,26.05
2017-08-16T19:15:24.641Z,26.03
2017-08-16T19:17:52.152Z,26.05
2017-08-16T19:20:19.664Z,26.03
2017-08-16T19:22:47.219Z,26.04
2017-08-16T19:25:14.718Z,26.05
2017-08-16T19:27:42.214Z,26.05
2017-08-16T19:30:09.755Z,26.04
2017-08-16T19:32:37.254Z,26.03
2017-08-16T19:35:04.879Z,26.04
2017-08-16T19:37:32.389Z,26.02
2017-08-16T19:39:59.895Z,26.03
2017-08-16T19:42:27.478Z,26.02
2017-08-16T19:44:54.988Z,26.03
2017-08-16T19:47:22.562Z,26.02
2017-08-16T19:49:50.097Z,26.02
2017-08-16T19:52:17.657Z,26.01
2017-08-16T19:54:45.189Z,26.01
2017-08-16T19:57:12.729Z,26.00
2017-08-16T19:59:40.227Z,26.00
2017-08-16T20:02:07.821Z,25.97
2017-08-16T20:04:35.361Z,26.02
2017-08-16T20:07:02.861Z,26.01
2017-08-16T20:09:30.405Z,26.01
2017-08-16T20:11:57.920Z,25.96
2017-08-16T20:14:25.514Z,25.99
2017-08-16T20:16:53.061Z,26.00
2017-08-16T20:19:20.570Z,25.99
2017-08-16T20:21:48.109Z,25.98
2017-08-16T20:24:15.654Z,26.00
2017-08-16T20:26:43.189Z,25.98
2017-08-16T20:29:10.777Z,25.99
2017-08-16T20:31:38.277Z,25.99
2017-08-16T20:34:05.814Z,25.99
2017-08-16T20:36:33.430Z,25.93
2017-08-16T20:39:00.938Z,25.97
2017-08-16T20:41:28.590Z,25.97
2017-08-16T20:43:56.464Z,25.93
2017-08-16T20:46:23.961Z,25.90
2017-08-16T20:48:51.496Z,25.96
2017-08-16T20:51:19.051Z,25.95
2017-08-16T20:53:46.574Z,25.95
2017-08-16T20:56:14.076Z,25.95
2017-08-16T20:58:41.638Z,25.94
2017-08-16T21:01:09.174Z,25.94
2017-08-16T21:03:36.734Z,25.93
2017-08-16T21:06:04.234Z,25.92
2017-08-16T21:08:31.793Z,25.91
2017-08-16T21:10:59.314Z,25.91
2017-08-16T21:13:26.883Z,25.91
2017-08-16T21:15:54.433Z,25.91
2017-08-16T21:18:21.965Z,25.89
2017-08-16T21:20:49.505Z,25.91
2017-08-16T21:23:17.017Z,25.90
2017-08-16T21:25:44.575Z,25.90
2017-08-16T21:28:12.073Z,25.87
2017-08-16T21:30:39.587Z,25.89
2017-08-16T21:33:07.141Z,25.87
2017-08-16T21:35:34.658Z,25.89
2017-08-16T21:38:02.178Z,25.86
2017-08-16T21:40:29.713Z,25.87
2017-08-16T21:42:57.259Z,25.88
2017-08-16T21:45:24.831Z,25.83
2017-08-16T21:47:52.327Z,25.86
2017-08-16T21:50:19.862Z,25.86
2017-08-16T21:52:47.358Z,25.86
2017-08-16T21:55:14.897Z,25.84
2017-08-16T21:57:42.415Z,25.85
2017-08-16T22:00:09.965Z,25.85
2017-08-16T22:02:37.468Z,25.82
2017-08-16T22:05:05.037Z,25.81
2017-08-16T22:07:32.536Z,25.82
2017-08-16T22:10:00.089Z,25.81
2017-08-16T22:12:27.656Z,25.80
2017-08-16T22:14:55.198Z,25.75
2017-08-16T22:17:22.759Z,25.78
2017-08-16T22:19:50.257Z,25.79
2017-08-16T22:22:22.790Z,25.79
2017-08-16T22:24:50.289Z,25.76
2017-08-16T22:27:17.829Z,25.77
2017-08-16T22:29:45.390Z,25.74
2017-08-16T22:32:12.898Z,25.76
2017-08-16T22:34:40.444Z,25.74
2017-08-16T22:37:07.957Z,25.73
2017-08-16T22:39:35.505Z,25.73
2017-08-16T22:42:03.061Z,25.66
2017-08-16T22:44:30.570Z,25.73
2017-08-16T22:46:58.172Z,25.67
2017-08-16T22:49:25.729Z,25.71
2017-08-16T22:51:53.266Z,25.70
2017-08-16T22:54:20.798Z,25.66
2017-08-16T22:56:48.348Z,25.63
2017-08-16T22:59:15.856Z,25.59
2017-08-16T23:01:43.409Z,25.54
2017-08-16T23:04:10.926Z,25.51
2017-08-16T23:06:38.461Z,25.48
2017-08-16T23:09:05.997Z,25.40
2017-08-16T23:11:33.656Z,25.39
2017-08-16T23:14:01.203Z,25.37
2017-08-16T23:16:28.739Z,25.36
2017-08-16T23:18:56.400Z,25.31
2017-08-16T23:21:23.907Z,25.28
2017-08-16T23:23:51.422Z,25.24
2017-08-16T23:26:18.954Z,25.21
2017-08-16T23:28:46.452Z,25.17
2017-08-16T23:31:14.002Z,25.14
2017-08-16T23:33:41.497Z,25.13
2017-08-16T23:36:09.040Z,25.09
2017-08-16T23:38:36.537Z,25.05
2017-08-16T23:41:04.138Z,25.00
2017-08-16T23:43:31.682Z,24.98
2017-08-16T23:45:59.244Z,24.95
2017-08-16T23:48:26.941Z,24.94
2017-08-16T23:50:54.453Z,24.87
2017-08-16T23:53:22.024Z,24.84
2017-08-16T23:55:49.574Z,24.85
2017-08-16T23:58:17.073Z,24.81
